Miami, Florida
Traffic Map
Current Weather Conditions
Miami, Florida
Broken Clouds
Broken Clouds
29°
Feels Like: 34°
Wind Chill: 29° Ceiling: 25000
Heat Index: 34° Visibility: 10mi
Dew Point: 23° Wind: 7mph
Humidity: 69% Direction: 100° (E)
Pressure: 29.97in Gusts: 0mph
Raw Report DataKMIA 251853Z 10006KT 10SM FEW030 FEW070 BKN250 29/23 A2997 RMK AO2 SLP150 CB DSNT SW T02940233 $
Traffic Incident Summary
Active as of:
Severity:
Category:
InformationThere was an issue retrieving the traffic information for this location. Please try a different location or try again shortly.
Advertisements
Track Severe Weather on mobile